createdAt,value
2023-12-05T00:01:39.948Z,-4.97
2023-12-05T00:04:14.433Z,-4.97
2023-12-05T00:06:47.697Z,-4.99
2023-12-05T00:09:20.829Z,-5.00
2023-12-05T00:11:53.837Z,-5.00
2023-12-05T00:14:26.682Z,-4.99
2023-12-05T00:16:59.548Z,-4.99
2023-12-05T00:19:34.037Z,-5.03
2023-12-05T00:22:07.271Z,-5.03
2023-12-05T00:24:40.221Z,-5.00
2023-12-05T00:27:13.928Z,-5.00
2023-12-05T00:29:48.142Z,-4.96
2023-12-05T00:32:21.051Z,-4.93
2023-12-05T00:34:55.483Z,-4.90
2023-12-05T00:37:28.362Z,-4.87
2023-12-05T00:40:01.315Z,-4.85
2023-12-05T00:42:34.406Z,-4.83
2023-12-05T00:45:08.025Z,-4.83
2023-12-05T00:47:40.965Z,-4.81
2023-12-05T00:50:15.277Z,-4.79
2023-12-05T00:52:48.304Z,-4.77
2023-12-05T00:55:22.150Z,-4.75
2023-12-05T00:57:55.583Z,-4.70
2023-12-05T01:00:28.571Z,-4.68
2023-12-05T01:03:01.499Z,-4.69
2023-12-05T01:05:36.715Z,-4.69
2023-12-05T01:08:09.833Z,-4.68
2023-12-05T01:10:42.831Z,-4.66
2023-12-05T01:13:15.803Z,-4.65
2023-12-05T01:15:48.796Z,-4.67
2023-12-05T01:18:21.898Z,-4.62
2023-12-05T01:20:56.159Z,-4.57
2023-12-05T01:23:29.105Z,-4.54
2023-12-05T01:26:02.043Z,-4.53
2023-12-05T01:28:35.005Z,-4.50
2023-12-05T01:31:08.494Z,-4.49
2023-12-05T01:33:41.466Z,-4.49
2023-12-05T01:36:16.333Z,-4.48
2023-12-05T01:38:49.205Z,-4.45
2023-12-05T01:41:22.290Z,-4.42
2023-12-05T01:43:55.260Z,-4.42
2023-12-05T01:46:28.155Z,-4.43
2023-12-05T01:49:06.370Z,-4.41
2023-12-05T01:51:45.829Z,-4.41
2023-12-05T01:54:18.864Z,-4.42
2023-12-05T01:56:51.744Z,-4.39
2023-12-05T01:59:24.937Z,-4.36
2023-12-05T02:01:57.985Z,-4.31
2023-12-05T02:04:32.188Z,-4.36
2023-12-05T02:07:06.649Z,-4.35
2023-12-05T02:09:40.216Z,-4.36
2023-12-05T02:12:13.226Z,-4.39
2023-12-05T02:14:46.460Z,-4.39
2023-12-05T02:17:26.624Z,-4.35
2023-12-05T02:20:11.025Z,-4.36
2023-12-05T02:23:18.418Z,-4.28
2023-12-05T02:26:09.086Z,-4.30
2023-12-05T02:28:44.014Z,-4.34
2023-12-05T02:31:16.917Z,-4.34
2023-12-05T02:33:50.907Z,-4.36
2023-12-05T02:36:44.233Z,-4.36
2023-12-05T02:39:26.354Z,-4.42
2023-12-05T02:42:02.783Z,-4.45
2023-12-05T02:44:41.013Z,-4.45
2023-12-05T02:47:15.381Z,-4.48
2023-12-05T02:49:48.472Z,-4.49
2023-12-05T02:52:27.306Z,-4.48
2023-12-05T02:55:00.206Z,-4.51
2023-12-05T02:57:33.658Z,-4.54
2023-12-05T03:00:09.732Z,-4.57
2023-12-05T03:02:42.706Z,-4.63
2023-12-05T03:05:15.927Z,-4.66
2023-12-05T03:07:48.875Z,-4.67
2023-12-05T03:10:21.737Z,-4.70
2023-12-05T03:12:54.652Z,-4.75
2023-12-05T03:15:29.095Z,-4.77
2023-12-05T03:18:02.787Z,-4.82
2023-12-05T03:20:35.886Z,-4.82
2023-12-05T03:23:08.857Z,-4.85
2023-12-05T03:25:41.768Z,-4.84
2023-12-05T03:28:14.603Z,-4.87
2023-12-05T03:30:49.147Z,-4.90
2023-12-05T03:33:22.211Z,-4.87
2023-12-05T03:35:55.089Z,-4.88
2023-12-05T03:38:27.923Z,-4.90
2023-12-05T03:41:01.136Z,-4.92
2023-12-05T03:43:34.072Z,-4.89
2023-12-05T03:46:08.956Z,-4.91
2023-12-05T03:48:42.060Z,-4.92
2023-12-05T03:51:15.281Z,-4.91
2023-12-05T03:53:48.580Z,-4.90
2023-12-05T03:56:21.458Z,-4.90
2023-12-05T03:58:55.406Z,-4.91
2023-12-05T04:01:29.506Z,-4.81
2023-12-05T04:04:02.804Z,-4.91
2023-12-05T04:06:35.901Z,-4.91
2023-12-05T04:09:08.945Z,-4.93
2023-12-05T04:11:41.898Z,-4.93
2023-12-05T04:14:15.227Z,-4.95
2023-12-05T04:16:49.474Z,-4.93
2023-12-05T04:19:22.575Z,-4.91
2023-12-05T04:21:55.666Z,-4.89
2023-12-05T04:24:28.641Z,-4.92
2023-12-05T04:27:01.515Z,-4.94
2023-12-05T04:29:34.401Z,-4.97
2023-12-05T04:32:08.801Z,-4.99
2023-12-05T04:34:44.292Z,-5.00
2023-12-05T04:37:17.210Z,-5.02
2023-12-05T04:39:50.107Z,-5.05
2023-12-05T04:42:22.976Z,-5.08
2023-12-05T04:44:55.832Z,-5.11
2023-12-05T04:47:30.640Z,-5.12
2023-12-05T04:50:03.946Z,-5.14
2023-12-05T04:52:37.082Z,-5.16
2023-12-05T04:55:10.337Z,-5.18
2023-12-05T04:57:43.221Z,-5.17
2023-12-05T05:00:17.104Z,-5.18
2023-12-05T05:02:51.489Z,-5.22
2023-12-05T05:05:24.475Z,-5.24
2023-12-05T05:07:57.424Z,-5.27
2023-12-05T05:10:30.913Z,-5.29
2023-12-05T05:13:03.837Z,-5.33
2023-12-05T05:15:36.790Z,-5.35
2023-12-05T05:18:11.093Z,-5.38
2023-12-05T05:20:44.080Z,-5.39
2023-12-05T05:23:17.372Z,-5.39
2023-12-05T05:25:50.478Z,-5.41
2023-12-05T05:28:23.460Z,-5.43
2023-12-05T05:30:56.690Z,-5.43
2023-12-05T05:33:31.202Z,-5.45
2023-12-05T05:36:04.653Z,-5.48
2023-12-05T05:38:37.808Z,-5.50
2023-12-05T05:41:12.749Z,-5.51
2023-12-05T05:43:45.659Z,-5.52
2023-12-05T05:46:18.612Z,-5.56
2023-12-05T05:48:52.925Z,-5.57
2023-12-05T05:51:26.677Z,-5.58
2023-12-05T05:54:00.583Z,-5.58
2023-12-05T05:56:39.462Z,-5.48
2023-12-05T05:59:12.362Z,-5.62
2023-12-05T06:01:45.230Z,-5.67
2023-12-05T06:04:19.696Z,-5.69
2023-12-05T06:06:52.676Z,-5.71
2023-12-05T06:09:25.642Z,-5.72
2023-12-05T06:12:05.014Z,-5.75
2023-12-05T06:14:38.027Z,-5.75
2023-12-05T06:17:10.945Z,-5.74
2023-12-05T06:19:45.438Z,-5.75
2023-12-05T06:22:18.461Z,-5.75
2023-12-05T06:24:51.603Z,-5.74
2023-12-05T06:27:24.556Z,-5.73
2023-12-05T06:30:00.029Z,-5.72
2023-12-05T06:32:36.107Z,-5.72
2023-12-05T06:35:10.792Z,-5.70
2023-12-05T06:37:43.640Z,-5.67
2023-12-05T06:40:16.949Z,-5.65
2023-12-05T06:42:49.923Z,-5.60
2023-12-05T06:45:22.823Z,-5.57
2023-12-05T06:47:55.820Z,-5.56
2023-12-05T06:50:30.161Z,-5.54
2023-12-05T06:53:03.676Z,-5.50
2023-12-05T06:55:37.546Z,-5.45
2023-12-05T06:58:11.681Z,-5.41
2023-12-05T07:00:44.852Z,-5.34
2023-12-05T07:03:18.033Z,-5.25
2023-12-05T07:05:52.407Z,-5.17
2023-12-05T07:08:25.290Z,-5.06
2023-12-05T07:10:58.193Z,-4.97
2023-12-05T07:13:31.085Z,-4.86
2023-12-05T07:16:03.954Z,-4.75
2023-12-05T07:18:38.100Z,-4.63
2023-12-05T07:21:12.482Z,-4.52
2023-12-05T07:23:52.458Z,-4.41
2023-12-05T07:26:31.940Z,-4.30
2023-12-05T07:29:05.072Z,-4.20
2023-12-05T07:31:38.070Z,-4.13
2023-12-05T07:34:11.134Z,-4.06
2023-12-05T07:36:45.619Z,-4.01
2023-12-05T07:39:18.607Z,-3.99
2023-12-05T07:41:51.478Z,-3.94
2023-12-05T07:44:24.388Z,-3.89
2023-12-05T07:47:00.234Z,-3.77
2023-12-05T07:49:33.205Z,-3.55
2023-12-05T07:52:07.845Z,-3.35
2023-12-05T07:54:40.852Z,-3.07
2023-12-05T07:57:13.830Z,-2.81
2023-12-05T07:59:46.752Z,-2.51
2023-12-05T08:02:19.826Z,-2.09
2023-12-05T08:04:52.895Z,-1.44
2023-12-05T08:07:28.740Z,-0.82
2023-12-05T08:10:02.505Z,-0.58
2023-12-05T08:12:35.679Z,-0.35
2023-12-05T08:15:09.689Z,-0.13
2023-12-05T08:17:42.426Z,0.12
2023-12-05T08:20:15.373Z,0.07
2023-12-05T08:22:49.637Z,0.10
2023-12-05T08:25:22.679Z,0.26
2023-12-05T08:27:55.682Z,0.41
2023-12-05T08:30:28.604Z,0.48
2023-12-05T08:33:01.909Z,0.49
2023-12-05T08:35:34.799Z,0.74
2023-12-05T08:38:09.094Z,1.16
2023-12-05T08:40:41.994Z,1.78
2023-12-05T08:43:15.030Z,2.53
2023-12-05T08:45:48.135Z,3.28
2023-12-05T08:48:21.248Z,3.97
2023-12-05T08:50:54.423Z,4.41
2023-12-05T08:53:28.980Z,4.66
2023-12-05T08:56:05.312Z,4.93
2023-12-05T08:58:39.207Z,5.10
2023-12-05T09:01:13.039Z,5.15
2023-12-05T09:03:46.099Z,5.43
2023-12-05T09:06:19.307Z,5.95
2023-12-05T09:08:53.955Z,6.71
2023-12-05T09:11:27.496Z,7.44
2023-12-05T09:14:00.789Z,8.23
2023-12-05T09:16:33.817Z,8.95
2023-12-05T09:19:09.804Z,9.69
2023-12-05T09:21:42.608Z,10.50
2023-12-05T09:24:16.843Z,11.14
2023-12-05T09:26:49.763Z,11.78
2023-12-05T09:29:23.268Z,12.24
2023-12-05T09:31:56.168Z,12.34
2023-12-05T09:34:29.115Z,12.50
2023-12-05T09:37:03.720Z,12.77
2023-12-05T09:39:38.605Z,13.21
2023-12-05T09:42:15.283Z,13.41
2023-12-05T09:44:49.647Z,13.51
2023-12-05T09:47:24.107Z,13.61
2023-12-05T09:49:57.548Z,13.59
2023-12-05T09:52:30.711Z,13.65
2023-12-05T09:55:06.296Z,13.74
2023-12-05T09:57:40.543Z,13.85
2023-12-05T10:00:20.518Z,13.98
2023-12-05T10:02:55.405Z,14.13
2023-12-05T10:05:31.762Z,14.28
2023-12-05T10:08:05.326Z,14.37
2023-12-05T10:10:41.041Z,14.20
2023-12-05T10:13:14.529Z,13.98
2023-12-05T10:15:48.300Z,13.79
2023-12-05T10:18:21.884Z,13.55
2023-12-05T10:20:54.818Z,12.97
2023-12-05T10:23:28.001Z,12.28
2023-12-05T10:26:02.453Z,11.84
2023-12-05T10:28:50.161Z,11.27
2023-12-05T10:31:23.546Z,10.52
2023-12-05T10:34:07.119Z,9.66
2023-12-05T10:36:40.343Z,8.83
2023-12-05T10:39:13.300Z,8.06
2023-12-05T10:41:48.077Z,7.32
2023-12-05T10:44:23.970Z,6.77
2023-12-05T10:46:58.731Z,6.29
2023-12-05T10:49:32.055Z,5.88
2023-12-05T10:52:06.457Z,5.49
2023-12-05T10:54:41.029Z,5.24
2023-12-05T10:57:15.268Z,5.15
2023-12-05T10:59:51.869Z,5.23
2023-12-05T11:02:24.975Z,5.23
2023-12-05T11:04:58.190Z,5.19
2023-12-05T11:07:31.032Z,5.35
2023-12-05T11:10:05.288Z,5.55
2023-12-05T11:12:39.954Z,5.83
2023-12-05T11:15:17.626Z,6.25
2023-12-05T11:17:54.801Z,6.69
2023-12-05T11:20:53.836Z,7.08
2023-12-05T11:24:01.039Z,7.43
2023-12-05T11:26:51.089Z,7.94
2023-12-05T11:32:42.781Z,8.35
2023-12-05T11:35:25.723Z,8.45
2023-12-05T11:38:09.816Z,8.76
2023-12-05T11:40:42.266Z,9.04
2023-12-05T11:43:18.478Z,9.45
2023-12-05T11:45:59.736Z,10.13
2023-12-05T11:48:35.009Z,10.74
2023-12-05T11:51:08.280Z,11.53
2023-12-05T11:53:41.224Z,12.33
2023-12-05T11:56:20.216Z,13.04
2023-12-05T11:58:53.257Z,13.50
2023-12-05T12:01:26.224Z,13.72
2023-12-05T12:04:01.337Z,14.05
2023-12-05T12:06:34.438Z,14.31
2023-12-05T12:09:09.039Z,14.60
2023-12-05T12:11:44.013Z,14.92
2023-12-05T12:14:18.043Z,15.16
2023-12-05T12:16:52.330Z,15.32
2023-12-05T12:19:27.076Z,15.40
2023-12-05T12:22:05.553Z,15.46
2023-12-05T12:24:39.044Z,15.57
2023-12-05T12:27:12.713Z,15.55
2023-12-05T12:29:53.480Z,15.51
2023-12-05T12:32:26.460Z,15.35
2023-12-05T12:35:02.229Z,15.33
2023-12-05T12:37:45.463Z,15.26
2023-12-05T12:40:23.825Z,15.08
2023-12-05T12:42:57.424Z,14.79
2023-12-05T12:45:30.977Z,14.46
2023-12-05T12:48:07.445Z,14.20
2023-12-05T12:50:41.904Z,13.62
2023-12-05T12:53:15.050Z,12.66
2023-12-05T12:55:48.194Z,11.76
2023-12-05T12:58:28.170Z,11.03
2023-12-05T13:01:01.298Z,10.23
2023-12-05T13:03:34.678Z,9.32
2023-12-05T13:06:09.441Z,8.64
2023-12-05T13:08:42.491Z,7.96
2023-12-05T13:11:43.446Z,7.46
2023-12-05T13:14:22.214Z,7.35
2023-12-05T13:16:59.465Z,7.33
2023-12-05T13:19:37.421Z,7.14
2023-12-05T13:22:15.655Z,6.78
2023-12-05T13:24:48.930Z,6.43
2023-12-05T13:27:22.121Z,5.83
2023-12-05T13:29:54.993Z,5.23
2023-12-05T13:32:27.924Z,4.67
2023-12-05T13:35:00.864Z,4.17
2023-12-05T13:37:35.205Z,3.65
2023-12-05T13:40:09.325Z,3.14
2023-12-05T13:42:42.266Z,2.70
2023-12-05T13:45:17.661Z,2.29
2023-12-05T13:47:51.532Z,1.89
2023-12-05T13:50:26.548Z,1.58
2023-12-05T13:53:00.787Z,1.29
2023-12-05T13:55:33.787Z,1.03
2023-12-05T13:58:06.789Z,0.82
2023-12-05T14:00:39.832Z,0.62
2023-12-05T14:03:12.778Z,0.43
2023-12-05T14:05:47.611Z,0.24
2023-12-05T14:08:22.374Z,0.07
2023-12-05T14:10:55.674Z,-0.10
2023-12-05T14:13:28.642Z,-0.26
2023-12-05T14:16:02.202Z,-0.42
2023-12-05T14:18:35.478Z,-0.54
2023-12-05T14:21:11.866Z,-0.63
2023-12-05T14:24:34.666Z,-0.72
2023-12-05T14:27:25.996Z,-0.82
2023-12-05T14:30:11.049Z,-0.94
2023-12-05T14:32:47.292Z,-1.03
2023-12-05T14:35:21.985Z,-1.10
2023-12-05T14:37:55.389Z,-1.18
2023-12-05T14:40:28.495Z,-1.24
2023-12-05T14:43:02.813Z,-1.32
2023-12-05T14:45:35.785Z,-1.38
2023-12-05T14:48:09.879Z,-1.45
2023-12-05T14:50:43.059Z,-1.51
2023-12-05T14:53:16.123Z,-1.55
2023-12-05T14:55:49.106Z,-1.61
2023-12-05T14:58:23.454Z,-1.66
2023-12-05T15:01:00.958Z,-1.70
2023-12-05T15:03:34.174Z,-1.75
2023-12-05T15:06:07.762Z,-1.77
2023-12-05T15:08:40.922Z,-1.70
2023-12-05T15:11:13.768Z,-1.83
2023-12-05T15:13:48.373Z,-1.84
2023-12-05T15:16:21.428Z,-1.85
2023-12-05T15:18:56.280Z,-1.86
2023-12-05T15:21:30.641Z,-1.89
2023-12-05T15:24:14.831Z,-1.89
2023-12-05T15:26:48.617Z,-1.90
2023-12-05T15:29:28.757Z,-1.93
2023-12-05T15:32:09.613Z,-1.94
2023-12-05T15:34:43.010Z,-1.96
2023-12-05T15:37:16.248Z,-1.98
2023-12-05T15:39:49.399Z,-1.98
2023-12-05T15:42:22.583Z,-1.99
2023-12-05T15:44:58.357Z,-2.01
2023-12-05T15:47:35.476Z,-2.03
2023-12-05T15:50:11.156Z,-2.06
2023-12-05T15:52:44.245Z,-2.08
2023-12-05T15:55:17.163Z,-2.11
2023-12-05T15:57:52.121Z,-2.12
2023-12-05T16:00:26.452Z,-2.17
2023-12-05T16:02:59.542Z,-2.18
2023-12-05T16:05:46.415Z,-2.22
2023-12-05T16:08:19.894Z,-2.28
2023-12-05T16:10:58.441Z,-2.31
2023-12-05T16:13:31.763Z,-2.32
2023-12-05T16:16:07.150Z,-2.35
2023-12-05T16:18:43.421Z,-2.35
2023-12-05T16:21:20.023Z,-2.24
2023-12-05T16:23:53.098Z,-2.40
2023-12-05T16:26:28.469Z,-2.44
2023-12-05T16:29:01.469Z,-2.48
2023-12-05T16:31:35.786Z,-2.51
2023-12-05T16:34:09.437Z,-2.57
2023-12-05T16:36:46.195Z,-2.59
2023-12-05T16:39:19.662Z,-2.62
2023-12-05T16:41:53.361Z,-2.64
2023-12-05T16:44:26.615Z,-2.69
2023-12-05T16:47:01.356Z,-2.72
2023-12-05T16:49:34.746Z,-2.76
2023-12-05T16:52:08.249Z,-2.80
2023-12-05T16:54:41.809Z,-2.82
2023-12-05T16:57:14.733Z,-2.86
2023-12-05T16:59:48.105Z,-2.91
2023-12-05T17:02:22.473Z,-2.99
2023-12-05T17:04:55.637Z,-3.05
2023-12-05T17:07:28.947Z,-3.09
2023-12-05T17:10:02.347Z,-3.12
2023-12-05T17:12:36.151Z,-3.16
2023-12-05T17:15:10.363Z,-3.18
2023-12-05T17:17:44.699Z,-3.22
2023-12-05T17:20:17.929Z,-3.25
2023-12-05T17:22:51.292Z,-3.24
2023-12-05T17:25:24.903Z,-3.24
2023-12-05T17:27:57.886Z,-3.25
2023-12-05T17:30:30.999Z,-3.30
2023-12-05T17:33:10.061Z,-3.33
2023-12-05T17:35:43.072Z,-3.37
2023-12-05T17:38:16.597Z,-3.36
2023-12-05T17:40:49.789Z,-3.39
2023-12-05T17:43:25.231Z,-3.43
2023-12-05T17:45:58.259Z,-3.47
2023-12-05T17:48:32.685Z,-3.48
2023-12-05T17:51:06.483Z,-3.51
2023-12-05T17:53:39.532Z,-3.55
2023-12-05T17:56:13.027Z,-3.57
2023-12-05T17:58:46.381Z,-3.58
2023-12-05T18:01:19.318Z,-3.60
2023-12-05T18:03:53.955Z,-3.62
2023-12-05T18:06:26.959Z,-3.65
2023-12-05T18:08:59.979Z,-3.70
2023-12-05T18:11:32.905Z,-3.72
2023-12-05T18:14:05.880Z,-3.74
2023-12-05T18:16:38.811Z,-3.75
2023-12-05T18:19:13.638Z,-3.76
2023-12-05T18:21:46.626Z,-3.76
2023-12-05T18:24:20.008Z,-3.79
2023-12-05T18:26:53.185Z,-3.83
2023-12-05T18:29:26.098Z,-3.85
2023-12-05T18:31:59.000Z,-3.88
2023-12-05T18:34:33.689Z,-3.89
2023-12-05T18:37:06.958Z,-3.91
2023-12-05T18:39:40.940Z,-3.91
2023-12-05T18:42:15.125Z,-3.95
2023-12-05T18:44:48.052Z,-3.98
2023-12-05T18:47:21.283Z,-3.99
2023-12-05T18:49:56.554Z,-4.00
2023-12-05T18:52:29.746Z,-4.03
2023-12-05T18:55:02.712Z,-4.03
2023-12-05T18:57:35.765Z,-4.07
2023-12-05T19:00:09.555Z,-4.08
2023-12-05T19:02:42.498Z,-4.07
2023-12-05T19:05:17.096Z,-4.08
2023-12-05T19:07:50.166Z,-4.12
2023-12-05T19:10:23.633Z,-4.19
2023-12-05T19:12:58.658Z,-4.24
2023-12-05T19:15:32.122Z,-4.27
2023-12-05T19:18:05.709Z,-4.31
2023-12-05T19:20:40.173Z,-4.33
2023-12-05T19:23:13.182Z,-4.34
2023-12-05T19:25:46.093Z,-4.36
2023-12-05T19:28:20.589Z,-4.39
2023-12-05T19:30:54.075Z,-4.41
2023-12-05T19:33:27.353Z,-4.41
2023-12-05T19:36:01.775Z,-4.44
2023-12-05T19:38:36.315Z,-4.44
2023-12-05T19:41:11.610Z,-4.46
2023-12-05T19:43:44.576Z,-4.47
2023-12-05T19:46:17.532Z,-4.50
2023-12-05T19:48:51.001Z,-4.54
2023-12-05T19:51:25.441Z,-4.56
2023-12-05T19:53:59.649Z,-4.61
2023-12-05T19:56:32.699Z,-4.64
2023-12-05T19:59:05.735Z,-4.66
2023-12-05T20:01:38.817Z,-4.67
2023-12-05T20:04:12.165Z,-4.69
2023-12-05T20:06:46.623Z,-4.70
2023-12-05T20:09:19.553Z,-4.72
2023-12-05T20:11:52.558Z,-4.73
2023-12-05T20:14:25.577Z,-4.73
2023-12-05T20:16:58.492Z,-4.73
2023-12-05T20:19:31.926Z,-4.75
2023-12-05T20:22:08.276Z,-4.73
2023-12-05T20:24:41.294Z,-4.75
2023-12-05T20:27:14.226Z,-4.72
2023-12-05T20:29:47.458Z,-4.69
2023-12-05T20:32:20.461Z,-4.66
2023-12-05T20:34:53.442Z,-4.63
2023-12-05T20:37:27.906Z,-4.60
2023-12-05T20:40:01.018Z,-4.57
2023-12-05T20:42:34.036Z,-4.52
2023-12-05T20:45:07.978Z,-4.47
2023-12-05T20:47:41.436Z,-4.43
2023-12-05T20:50:14.487Z,-4.39
2023-12-05T20:52:49.009Z,-4.35
2023-12-05T20:55:21.965Z,-4.32
2023-12-05T20:57:55.126Z,-4.28
2023-12-05T21:00:28.135Z,-4.29
2023-12-05T21:03:01.372Z,-4.30
2023-12-05T21:05:34.419Z,-4.31
2023-12-05T21:08:12.327Z,-4.32
2023-12-05T21:10:45.250Z,-4.34
2023-12-05T21:13:18.298Z,-4.37
2023-12-05T21:15:51.341Z,-4.38
2023-12-05T21:18:24.731Z,-4.40
2023-12-05T21:20:57.881Z,-4.42
2023-12-05T21:23:34.222Z,-4.45
2023-12-05T21:26:07.224Z,-4.47
2023-12-05T21:28:40.287Z,-4.48
2023-12-05T21:31:13.395Z,-4.50
2023-12-05T21:33:46.619Z,-4.53
2023-12-05T21:36:22.918Z,-4.55
2023-12-05T21:38:59.944Z,-4.57
2023-12-05T21:41:33.201Z,-4.63
2023-12-05T21:44:06.244Z,-4.69
2023-12-05T21:46:39.828Z,-4.75
2023-12-05T21:49:12.969Z,-4.78
2023-12-05T21:51:46.080Z,-4.82
2023-12-05T21:54:20.457Z,-4.81
2023-12-05T21:56:53.924Z,-4.82
2023-12-05T21:59:26.857Z,-4.83
2023-12-05T22:02:00.120Z,-4.83
2023-12-05T22:04:34.623Z,-4.83
2023-12-05T22:07:07.710Z,-4.82
2023-12-05T22:09:42.139Z,-4.83
2023-12-05T22:12:15.244Z,-4.86
2023-12-05T22:14:49.062Z,-4.86
2023-12-05T22:17:22.422Z,-4.85
2023-12-05T22:19:55.538Z,-4.86
2023-12-05T22:22:28.404Z,-4.88
2023-12-05T22:25:02.752Z,-4.93
2023-12-05T22:27:35.770Z,-4.96
2023-12-05T22:30:10.261Z,-4.97
2023-12-05T22:32:43.163Z,-4.96
2023-12-05T22:35:16.281Z,-4.98
2023-12-05T22:37:49.191Z,-5.00
2023-12-05T22:40:23.606Z,-4.96
2023-12-05T22:42:56.709Z,-4.92
2023-12-05T22:45:29.719Z,-4.89
2023-12-05T22:48:03.409Z,-4.86
2023-12-05T22:50:36.391Z,-4.80
2023-12-05T22:53:09.439Z,-4.78
2023-12-05T22:55:43.745Z,-4.72
2023-12-05T22:58:16.659Z,-4.71
2023-12-05T23:00:49.837Z,-4.66
2023-12-05T23:03:23.170Z,-4.61
2023-12-05T23:05:56.619Z,-4.58
2023-12-05T23:08:29.593Z,-4.58
2023-12-05T23:11:03.997Z,-4.57
2023-12-05T23:13:37.020Z,-4.56
2023-12-05T23:16:10.354Z,-4.53
2023-12-05T23:18:43.574Z,-4.53
2023-12-05T23:21:16.934Z,-4.49
2023-12-05T23:23:49.993Z,-4.45
2023-12-05T23:26:24.321Z,-4.44
2023-12-05T23:28:57.363Z,-4.47
2023-12-05T23:31:30.261Z,-4.46
2023-12-05T23:34:03.656Z,-4.43
2023-12-05T23:36:36.682Z,-4.38
2023-12-05T23:39:09.851Z,-4.33
2023-12-05T23:41:44.332Z,-4.30
2023-12-05T23:44:22.170Z,-4.28
2023-12-05T23:46:55.093Z,-4.33
2023-12-05T23:49:28.069Z,-4.34
2023-12-05T23:52:02.588Z,-4.33
2023-12-05T23:54:35.594Z,-4.25
2023-12-05T23:57:09.917Z,-4.36
2023-12-05T23:59:42.920Z,-4.37
